Guild, TN (37340)

2:22 PM CDT on April 25, 2015 (GMT -0500)
New Home | | Change Station
CLOSE
Current Station
Personal Weather Station
Location: Trenton, GA
Elevation: 1470 ft
Nearby Weather Stations

Elev 1470 ft 34.98 °N, 85.51 °W | Updated 9 minutes ago

Mostly Cloudy
Mostly Cloudy
75.7 °F
Feels Like 77 °F
N
0.0
Wind Variable Wind from West
Gusts 6.0 mph

Today
High -- | Low -- °F
--% Chance of Precip.
Yesterday
High -- | Low -- °F
Precip. -- in
5:58 AM 7:22 PM
Waxing Crescent, 48% visible
Pressure 29.67 in
Visibility 10.0 miles
Clouds Scattered Clouds 2400 ft
Mostly Cloudy 4100 ft
Heat Index 77 °F
Dew Point 65 °F
Humidity 69%
Rainfall 0.49 in
Snow Depth Not available.
UV 5 out of 12
Pollen 9.40 out of 12
Air Quality Not available.
Flu Activity Sporadic
METAR KCHA 251853Z 18012KT 10SM SCT024 BKN041 24/17 A2968 RMK AO2 SLP045 T02440167

More Conditions Fewer Conditions

Pressure 29.67 in
Visibility 10.0 miles
Clouds Scattered Clouds 2400 ft
Mostly Cloudy 4100 ft
Heat Index 77 °F
Dew Point 65 °F
Humidity 69%
Rainfall 0.49 in
Snow Depth Not available.
UV 5 out of 12
Pollen 9.40 out of 12
Air Quality Not available.
Flu Activity Sporadic
METAR KCHA 251853Z 18012KT 10SM SCT024 BKN041 24/17 A2968 RMK AO2 SLP045 T02440167

More Conditions Fewer Conditions

10-Day Weather Forecast

Almanac

Astronomy

Apr. 25, 2015 Rise Set
Actual Time
Civil Twilight
Nautical Twilight
Astronomical Twilight
Moon
Length of Visible Light
Length of Day
Tomorrow will be .
, % of the Moon is Illuminated

Today's Extremes

State Highs State Lows

Community

WunderPhotos

Upload Photos

1,816,781 photos uploaded!

WunderBlogs® & News

Nearby

Air Quality

  Air Quality AQ Index Pollutant
Not available.

Snow Depth

Station Depth Elevation

Earthquake Activity

City Distance Mag. Time & Date
Minimum magnitude displayed is 2.5.

Coastal Water Temperatures

Place Temperature

Stations

Nearby Weather Stations

Station Location Temp. Windchill Dew Point Humidity Wind Precip. Elev Updated Type